Time;durP1;ratioP1;P1;durP2;ratioP2;P2;SDS_P1;SDS_P2;PMS_P1;PMS_P2;Temp;Humidity;BMP_temperature;BMP_pressure;BME280_temperature;BME280_humidity;BME280_pressure;Samples;Min_cycle;Max_cycle;Signal;HPM_P1;HPM_P2
2023/09/01 00:02:24;;;;;;;11.10;8.15;;;;;;;21.23;49.11;93411.75;4967041;28;20120;-92
2023/09/01 00:04:49;;;;;;;11.10;8.20;;;;;;;21.22;49.12;93402.06;4975631;28;20963;-92
2023/09/01 00:07:15;;;;;;;12.80;8.57;;;;;;;21.22;48.81;93407.53;4966139;28;20504;-94
2023/09/01 00:09:40;;;;;;;10.20;8.00;;;;;;;21.20;49.08;93399.81;4991957;28;20065;-93
2023/09/01 00:12:06;;;;;;;9.35;7.43;;;;;;;21.20;48.94;93405.31;4990670;28;20026;-93
2023/09/01 00:14:31;;;;;;;10.18;6.65;;;;;;;21.24;48.93;93402.22;4983623;28;20112;-94
2023/09/01 00:16:57;;;;;;;11.27;8.00;;;;;;;21.24;48.62;93405.72;4964614;28;20825;-93
2023/09/01 00:19:23;;;;;;;8.80;7.90;;;;;;;21.21;48.94;93415.06;4986748;28;20057;-92
2023/09/01 00:21:49;;;;;;;11.07;7.53;;;;;;;21.20;49.00;93411.56;4975664;28;20041;-94
2023/09/01 00:24:15;;;;;;;11.88;8.10;;;;;;;21.24;49.03;93397.47;4972123;28;20052;-93
2023/09/01 00:26:40;;;;;;;10.98;8.15;;;;;;;21.22;48.94;93404.78;4971808;28;20034;-92
2023/09/01 00:29:06;;;;;;;11.65;8.02;;;;;;;21.20;49.07;93388.81;4977437;28;20100;-95
2023/09/01 00:31:33;;;;;;;11.82;8.30;;;;;;;21.22;48.99;93388.31;4987080;28;20038;-93
2023/09/01 00:33:58;;;;;;;10.80;7.68;;;;;;;21.20;49.01;93400.56;4973955;28;20130;-94
2023/09/01 00:36:24;;;;;;;12.38;7.95;;;;;;;21.20;49.22;93392.31;4985453;28;20041;-93
2023/09/01 00:38:49;;;;;;;11.40;7.15;;;;;;;21.23;48.98;93392.50;4969522;28;20035;-92
2023/09/01 00:41:15;;;;;;;12.40;8.27;;;;;;;21.23;49.11;93404.25;4989812;28;20042;-91
2023/09/01 00:43:40;;;;;;;9.13;6.72;;;;;;;21.24;48.92;93402.22;4991144;28;20041;-93
2023/09/01 00:46:06;;;;;;;10.45;7.35;;;;;;;21.24;49.14;93407.72;4990010;28;20065;-93
2023/09/01 00:48:31;;;;;;;10.65;7.78;;;;;;;21.22;49.10;93400.00;4971364;28;20469;-93
2023/09/01 00:50:57;;;;;;;10.32;6.93;;;;;;;21.21;49.18;93409.56;4988171;28;20066;-92
2023/09/01 00:53:22;;;;;;;11.85;7.55;;;;;;;21.23;49.08;93407.00;4989814;28;20057;-92
2023/09/01 00:55:48;;;;;;;10.93;7.70;;;;;;;21.24;49.02;93396.72;4971897;28;20417;-92
2023/09/01 00:58:14;;;;;;;9.00;7.07;;;;;;;21.21;49.18;93393.06;4961814;28;20042;-92
2023/09/01 01:00:39;;;;;;;10.32;8.27;;;;;;;21.22;48.97;93391.06;4984427;28;20054;-93
2023/09/01 01:03:05;;;;;;;9.68;7.00;;;;;;;21.22;49.34;93385.56;4955669;28;20054;-93
2023/09/01 01:06:07;;;;;;;8.75;7.30;;;;;;;21.22;49.10;93391.06;4947234;28;20041;-92
2023/09/01 01:08:49;;;;;;;8.43;6.85;;;;;;;21.20;49.20;93389.56;4979770;28;20042;-93
2023/09/01 01:11:30;;;;;;;8.23;6.38;;;;;;;21.20;49.25;93392.31;4987363;28;20053;-92
2023/09/01 01:13:58;;;;;;;9.80;7.35;;;;;;;21.20;49.23;93397.81;4967485;28;20576;-93
2023/09/01 01:16:24;;;;;;;8.68;6.50;;;;;;;21.22;49.50;93399.31;4955861;28;20042;-92
2023/09/01 01:18:49;;;;;;;10.73;6.53;;;;;;;21.25;49.32;93392.72;4952493;28;20050;-92
2023/09/01 01:21:21;;;;;;;10.50;7.65;;;;;;;21.20;49.30;93392.31;4968188;28;20094;-93
2023/09/01 01:23:47;;;;;;;10.35;6.97;;;;;;;21.22;49.19;93400.00;4950698;28;20664;-93
2023/09/01 01:26:15;;;;;;;12.32;7.75;;;;;;;21.19;49.29;93404.56;4971082;28;20073;-93
2023/09/01 01:28:40;;;;;;;8.20;6.93;;;;;;;21.19;49.37;93396.31;4990933;28;20058;-93
2023/09/01 01:31:06;;;;;;;10.07;7.35;;;;;;;21.18;49.47;93388.59;4989716;28;20042;-93
2023/09/01 01:33:41;;;;;;;11.88;7.07;;;;;;;21.17;49.24;93392.59;4990603;28;20038;-94
2023/09/01 01:36:10;;;;;;;10.30;6.85;;;;;;;21.19;49.32;93399.06;4988847;28;20030;-94
2023/09/01 01:38:39;;;;;;;9.75;6.65;;;;;;;21.19;49.36;93387.31;5002529;28;20034;-93
2023/09/01 01:41:10;;;;;;;8.38;6.50;;;;;;;21.18;49.42;93385.84;4986979;28;20041;-93
2023/09/01 01:43:35;;;;;;;9.63;7.05;;;;;;;21.18;49.77;93385.84;4973036;28;20045;-93
2023/09/01 01:46:00;;;;;;;10.32;6.75;;;;;;;21.21;49.26;93404.06;4989719;28;20099;-93
2023/09/01 01:48:26;;;;;;;10.00;7.25;;;;;;;21.19;49.39;93410.06;4972996;28;20089;-91
2023/09/01 01:50:55;;;;;;;10.73;6.68;;;;;;;21.19;49.83;93398.31;5004065;28;20042;-94
2023/09/01 01:53:23;;;;;;;9.93;7.10;;;;;;;21.22;49.28;93399.31;4992966;28;20107;-93
2023/09/01 01:55:50;;;;;;;9.35;6.80;;;;;;;21.21;49.17;93398.56;4983607;28;20042;-94
2023/09/01 01:58:15;;;;;;;7.97;6.40;;;;;;;21.17;49.39;93401.59;4999690;28;20042;-92
2023/09/01 02:00:41;;;;;;;9.43;5.78;;;;;;;21.22;49.31;93393.81;4992540;28;20041;-93
2023/09/01 02:03:06;;;;;;;9.90;6.75;;;;;;;21.20;49.70;93391.56;4989829;28;20046;-94
2023/09/01 02:05:32;;;;;;;8.93;6.45;;;;;;;21.17;49.45;93395.34;4989234;28;20038;-94
2023/09/01 02:07:58;;;;;;;8.68;6.40;;;;;;;21.18;49.53;93399.59;4990264;28;20065;-93
2023/09/01 02:10:23;;;;;;;9.65;6.88;;;;;;;21.19;49.62;93399.06;4991051;28;20133;-92
2023/09/01 02:12:49;;;;;;;10.80;6.07;;;;;;;21.22;49.58;93396.56;4971321;28;20049;-92
2023/09/01 02:15:15;;;;;;;9.80;6.07;;;;;;;21.19;49.64;93401.06;4974824;28;20066;-92
2023/09/01 02:17:40;;;;;;;9.38;6.07;;;;;;;21.19;49.55;93398.31;4986905;28;20072;-92
2023/09/01 02:20:16;;;;;;;8.70;5.93;;;;;;;21.20;49.37;93402.56;4988484;28;20069;-93
2023/09/01 02:22:43;;;;;;;8.55;6.05;;;;;;;21.18;49.42;93405.81;4973957;28;20045;-93
2023/09/01 02:25:08;;;;;;;8.77;6.13;;;;;;;21.17;49.40;93403.59;4992605;28;20048;-93
2023/09/01 02:27:37;;;;;;;7.63;6.07;;;;;;;21.19;49.52;93396.31;5002464;28;20128;-95
2023/09/01 02:30:03;;;;;;;8.82;6.40;;;;;;;21.18;49.47;93389.31;4994487;28;20600;-94
2023/09/01 02:32:29;;;;;;;6.97;5.10;;;;;;;21.16;49.66;93400.09;4974160;28;20056;-94
2023/09/01 02:34:54;;;;;;;9.35;6.80;;;;;;;21.17;49.66;93401.59;5011321;28;20042;-94
2023/09/01 02:37:20;;;;;;;7.55;5.90;;;;;;;21.17;49.58;93407.09;4986583;28;20084;-92
2023/09/01 02:39:45;;;;;;;8.30;5.95;;;;;;;21.18;49.49;93405.09;4979486;28;20049;-93
2023/09/01 02:42:11;;;;;;;9.70;6.03;;;;;;;21.18;49.72;93410.59;4980781;28;20088;-94
2023/09/01 02:44:36;;;;;;;7.63;5.63;;;;;;;21.18;49.71;93405.81;4990251;28;20026;-92
2023/09/01 02:47:03;;;;;;;8.48;6.70;;;;;;;21.17;49.51;93404.34;4993222;28;20505;-93
2023/09/01 02:49:29;;;;;;;7.95;5.95;;;;;;;21.18;49.71;93405.81;4992153;28;20051;-93
2023/09/01 02:51:56;;;;;;;8.18;6.13;;;;;;;21.18;49.66;93402.34;4991670;28;20042;-92
2023/09/01 02:54:21;;;;;;;8.07;5.82;;;;;;;21.18;49.61;93399.59;4992253;28;20048;-94
2023/09/01 02:56:47;;;;;;;8.18;5.68;;;;;;;21.18;49.66;93400.31;4992671;28;20050;-93
2023/09/01 02:59:12;;;;;;;8.38;5.72;;;;;;;21.17;49.71;93396.09;4992619;28;20536;-92
2023/09/01 03:01:38;;;;;;;9.77;6.68;;;;;;;21.19;49.51;93398.31;4987828;28;20046;-92
2023/09/01 03:04:07;;;;;;;7.30;5.38;;;;;;;21.18;49.56;93403.06;4972678;28;20481;-92
2023/09/01 03:06:33;;;;;;;7.43;5.88;;;;;;;21.16;49.80;93394.63;4988952;28;20066;-92
2023/09/01 03:08:59;;;;;;;8.32;5.82;;;;;;;21.18;49.62;93399.59;4970544;28;20041;-92
2023/09/01 03:11:24;;;;;;;9.25;6.13;;;;;;;21.17;49.71;93392.59;4978459;28;20050;-93
2023/09/01 03:13:51;;;;;;;7.18;5.63;;;;;;;21.17;49.69;93390.59;4960015;28;20070;-92
2023/09/01 03:16:16;;;;;;;7.07;5.80;;;;;;;21.17;49.35;93395.34;4970293;28;20042;-94
2023/09/01 03:18:42;;;;;;;6.15;5.43;;;;;;;21.21;49.47;93398.56;4992684;28;20092;-94
2023/09/01 03:21:09;;;;;;;9.02;6.32;;;;;;;21.18;49.65;93383.09;4980400;28;20710;-92
2023/09/01 03:23:34;;;;;;;8.10;5.25;;;;;;;21.19;49.55;93398.31;4978451;28;20104;-92
2023/09/01 03:26:00;;;;;;;7.35;5.25;;;;;;;21.18;49.57;93399.59;4982508;28;20042;-93
2023/09/01 03:28:25;;;;;;;7.25;5.35;;;;;;;21.18;49.71;93397.56;4983999;28;20053;-92
2023/09/01 03:30:51;;;;;;;10.30;5.70;;;;;;;21.17;49.53;93396.09;4997037;28;20048;-93
2023/09/01 03:33:17;;;;;;;6.97;5.45;;;;;;;21.15;49.61;93395.88;4992609;28;20045;-92
2023/09/01 03:35:43;;;;;;;7.82;5.40;;;;;;;21.15;49.88;93384.88;4992050;28;20464;-93
2023/09/01 03:38:09;;;;;;;6.95;5.05;;;;;;;21.16;49.69;93391.88;4977027;28;20045;-94
2023/09/01 03:40:37;;;;;;;6.95;5.20;;;;;;;21.17;49.62;93393.34;4993921;28;20037;-92
2023/09/01 03:43:03;;;;;;;6.82;5.28;;;;;;;21.18;49.77;93386.56;4996603;28;20096;-92
2023/09/01 03:45:28;;;;;;;6.00;5.07;;;;;;;21.16;49.79;93394.63;4993163;28;20037;-95
2023/09/01 03:47:54;;;;;;;10.07;6.30;;;;;;;21.15;49.70;93378.66;4976970;28;20038;-93
2023/09/01 03:50:19;;;;;;;5.85;5.00;;;;;;;21.17;49.72;93384.34;5003499;28;20038;-93
2023/09/01 03:52:45;;;;;;;6.93;4.85;;;;;;;21.18;49.81;93389.31;4987854;28;20053;-93
2023/09/01 03:55:10;;;;;;;7.57;5.70;;;;;;;21.19;49.75;93385.31;4991411;28;20046;-93
2023/09/01 03:57:36;;;;;;;6.88;5.63;;;;;;;21.17;49.63;93382.34;4984475;28;20117;-94
2023/09/01 04:00:05;;;;;;;7.90;4.97;;;;;;;21.16;49.82;93386.38;4990451;28;20030;-95
2023/09/01 04:02:31;;;;;;;7.68;5.30;;;;;;;21.16;49.64;93396.63;4977037;28;20072;-93
2023/09/01 04:04:57;;;;;;;6.05;4.53;;;;;;;21.16;49.67;93402.13;4979949;28;20030;-94
2023/09/01 04:07:22;;;;;;;6.32;5.18;;;;;;;21.16;49.65;93394.63;4979684;28;20061;-94
2023/09/01 04:09:48;;;;;;;7.75;4.68;;;;;;;21.19;49.73;93399.06;4988444;28;20046;-94
2023/09/01 04:12:13;;;;;;;6.63;4.80;;;;;;;21.18;49.79;93385.84;4989682;28;20077;-93
2023/09/01 04:14:38;;;;;;;6.65;4.93;;;;;;;21.15;49.89;93392.38;4978692;28;20049;-92
2023/09/01 04:17:04;;;;;;;8.43;5.43;;;;;;;21.16;49.98;93402.84;4986490;28;20103;-94
2023/09/01 04:19:30;;;;;;;6.78;4.88;;;;;;;21.12;50.01;93396.19;4997169;28;20043;-95
2023/09/01 04:21:55;;;;;;;7.53;5.55;;;;;;;21.15;49.93;93406.13;4961529;28;20042;-93
2023/09/01 04:24:20;;;;;;;6.32;5.13;;;;;;;21.16;49.73;93408.34;4988615;28;20045;-93
2023/09/01 04:26:46;;;;;;;7.47;5.68;;;;;;;21.14;49.75;93401.91;4979453;28;20038;-93
2023/09/01 04:29:11;;;;;;;7.70;5.00;;;;;;;21.14;50.12;93405.41;4967759;28;20375;-92
2023/09/01 04:31:37;;;;;;;6.68;5.40;;;;;;;21.15;50.04;93411.63;4972806;28;20052;-93
2023/09/01 04:34:03;;;;;;;7.22;4.88;;;;;;;21.14;49.95;93410.91;4969826;28;20048;-92
2023/09/01 04:36:28;;;;;;;6.28;4.97;;;;;;;21.15;50.07;93406.13;4973076;28;20104;-94
2023/09/01 04:38:53;;;;;;;5.60;4.25;;;;;;;21.15;49.92;93409.63;4964964;28;20452;-92
2023/09/01 04:41:19;;;;;;;7.15;4.45;;;;;;;21.13;49.94;93406.66;4987369;28;20104;-93
2023/09/01 04:43:44;;;;;;;5.20;4.47;;;;;;;21.16;49.92;93410.38;4967527;28;20034;-92
2023/09/01 04:46:10;;;;;;;6.97;4.80;;;;;;;21.18;49.96;93407.84;4971318;28;20049;-93
2023/09/01 04:48:35;;;;;;;6.72;3.97;;;;;;;21.18;49.77;93407.84;4972013;28;20461;-93
2023/09/01 04:51:02;;;;;;;5.75;3.97;;;;;;;21.17;50.01;93411.84;4980493;28;20037;-92
2023/09/01 04:53:28;;;;;;;4.55;4.03;;;;;;;21.17;49.59;93414.59;4971602;28;20052;-93
2023/09/01 04:55:53;;;;;;;4.70;4.18;;;;;;;21.15;49.92;93408.88;4973257;28;20053;-92
2023/09/01 04:58:19;;;;;;;6.90;4.32;;;;;;;21.16;49.91;93413.13;4955855;28;20046;-92
2023/09/01 05:00:44;;;;;;;4.75;3.58;;;;;;;21.13;49.87;93409.41;4957474;28;20034;-94
2023/09/01 05:03:10;;;;;;;7.15;4.18;;;;;;;21.15;49.98;93406.13;4953428;28;20104;-94
2023/09/01 05:05:35;;;;;;;6.35;3.85;;;;;;;21.15;49.85;93406.13;4972819;28;20042;-92
2023/09/01 05:08:01;;;;;;;6.38;4.18;;;;;;;21.20;49.77;93413.56;4954292;28;20116;-94
2023/09/01 05:10:26;;;;;;;5.03;3.38;;;;;;;21.17;49.84;93415.34;4949149;28;20531;-94
2023/09/01 05:12:52;;;;;;;5.90;3.58;;;;;;;21.17;49.96;93414.59;4952393;28;20137;-92
2023/09/01 05:15:18;;;;;;;5.82;3.30;;;;;;;21.16;49.96;93407.63;4966220;28;20047;-93
2023/09/01 05:17:44;;;;;;;4.95;3.85;;;;;;;21.18;50.07;93416.06;4928165;28;20506;-94
2023/09/01 05:20:10;;;;;;;5.80;3.53;;;;;;;21.19;49.88;93412.06;4941614;28;20050;-92
2023/09/01 05:22:35;;;;;;;6.70;3.50;;;;;;;21.16;50.08;93405.59;4928097;28;20126;-93
2023/09/01 05:25:02;;;;;;;4.03;3.20;;;;;;;21.15;49.89;93417.88;4933334;29;20031;-93
2023/09/01 05:27:28;;;;;;;3.42;2.78;;;;;;;21.18;49.77;93410.59;4938357;29;20199;-93
2023/09/01 05:29:55;;;;;;;4.15;3.28;;;;;;;21.19;49.93;93409.31;4916209;29;20032;-93
2023/09/01 05:32:21;;;;;;;3.20;2.58;;;;;;;21.18;50.01;93411.31;4918270;28;20062;-93
2023/09/01 05:34:47;;;;;;;4.28;3.53;;;;;;;21.19;50.14;93423.81;4919023;29;20039;-92
2023/09/01 05:37:12;;;;;;;4.72;3.05;;;;;;;21.18;50.10;93421.56;4932594;28;20568;-94
2023/09/01 05:39:38;;;;;;;4.28;3.10;;;;;;;21.16;50.14;93424.09;4953371;28;20042;-93
2023/09/01 05:42:04;;;;;;;6.05;2.97;;;;;;;21.17;49.98;93434.59;4948332;28;20054;-94
2023/09/01 05:44:30;;;;;;;4.63;3.03;;;;;;;21.18;50.01;93427.06;4937670;29;20123;-93
2023/09/01 05:46:57;;;;;;;4.38;2.50;;;;;;;21.16;49.89;93435.84;4955829;28;20089;-93
2023/09/01 05:49:23;;;;;;;3.55;2.88;;;;;;;21.17;50.02;93433.84;4988805;28;20046;-94
2023/09/01 05:51:48;;;;;;;5.32;2.45;;;;;;;21.17;49.92;93439.34;4975701;28;20139;-94
2023/09/01 05:54:14;;;;;;;4.05;2.65;;;;;;;21.18;49.97;93429.81;4989044;28;20533;-93
2023/09/01 05:56:39;;;;;;;3.20;2.45;;;;;;;21.17;50.21;93434.59;4987496;28;20449;-92
2023/09/01 05:59:05;;;;;;;3.38;2.50;;;;;;;21.19;49.90;93431.31;4974093;28;20097;-93
2023/09/01 06:01:35;;;;;;;4.25;2.70;;;;;;;21.18;50.21;93432.56;4973242;28;20046;-92
2023/09/01 06:04:01;;;;;;;5.93;2.65;;;;;;;21.18;49.95;93432.56;4977471;28;20034;-94
2023/09/01 06:06:27;;;;;;;2.85;2.35;;;;;;;21.18;49.96;93425.06;4974191;28;20054;-92
2023/09/01 06:08:52;;;;;;;3.60;2.25;;;;;;;21.20;50.09;93427.31;4956871;28;20042;-93
2023/09/01 06:11:18;;;;;;;4.47;2.95;;;;;;;21.19;50.16;93431.31;4967021;28;20034;-93
2023/09/01 06:13:43;;;;;;;5.78;2.78;;;;;;;21.18;49.95;93424.31;4992922;28;20057;-92
2023/09/01 06:16:09;;;;;;;3.47;2.58;;;;;;;21.17;50.30;93429.09;4986693;28;20038;-94
2023/09/01 06:18:39;;;;;;;3.10;2.40;;;;;;;21.16;50.29;93424.09;4971628;28;20047;-93
2023/09/01 06:21:05;;;;;;;4.30;2.35;;;;;;;21.18;50.15;93429.81;4974444;28;20042;-92
2023/09/01 06:23:30;;;;;;;2.88;2.40;;;;;;;21.18;50.10;93430.56;4993452;28;20042;-92
2023/09/01 06:25:55;;;;;;;4.10;2.45;;;;;;;21.20;50.17;93436.31;4974044;28;20034;-92
2023/09/01 06:28:21;;;;;;;2.65;2.15;;;;;;;21.20;50.19;93436.31;4976080;28;20065;-94
2023/09/01 06:30:46;;;;;;;4.43;2.17;;;;;;;21.24;50.04;93435.22;4982021;28;20041;-94
2023/09/01 06:33:12;;;;;;;3.13;1.80;;;;;;;21.22;50.17;93435.75;4988577;28;20046;-92
2023/09/01 06:35:37;;;;;;;3.05;2.40;;;;;;;21.19;50.26;93439.56;4976325;28;20057;-92
2023/09/01 06:38:05;;;;;;;2.42;2.00;;;;;;;21.19;50.09;93437.53;4983152;28;20041;-94
2023/09/01 06:40:30;;;;;;;3.28;2.15;;;;;;;21.18;50.21;93447.06;4985973;28;20116;-93
2023/09/01 06:42:56;;;;;;;2.78;2.33;;;;;;;21.19;50.37;93440.28;4981062;28;20129;-92
2023/09/01 06:45:21;;;;;;;2.92;2.20;;;;;;;21.22;50.40;93444.00;4969940;28;20042;-92
2023/09/01 06:47:49;;;;;;;2.45;1.60;;;;;;;21.21;50.13;93448.03;4983276;28;20034;-94
2023/09/01 06:50:14;;;;;;;2.55;2.00;;;;;;;21.23;50.12;93450.97;4981511;28;20065;-91
2023/09/01 06:52:41;;;;;;;5.50;2.22;;;;;;;21.21;50.24;93445.28;4978931;28;20070;-92
2023/09/01 06:55:11;;;;;;;2.20;1.92;;;;;;;21.23;50.31;93444.75;5004409;28;20051;-92
2023/09/01 06:57:40;;;;;;;2.00;1.80;;;;;;;21.26;50.18;93452.69;4999140;28;20037;-92
2023/09/01 07:00:09;;;;;;;2.33;1.98;;;;;;;21.23;50.31;93455.75;5016769;28;20022;-94
2023/09/01 07:02:37;;;;;;;2.42;1.90;;;;;;;21.26;50.20;93454.69;5009352;28;20046;-92
2023/09/01 07:05:04;;;;;;;2.17;1.70;;;;;;;21.22;50.33;93448.78;5006799;28;20046;-92
2023/09/01 07:07:30;;;;;;;2.20;1.45;;;;;;;21.24;50.41;93454.47;4968554;28;20054;-92
2023/09/01 07:10:05;;;;;;;2.63;1.80;;;;;;;21.22;50.56;93452.25;4969446;28;20042;-92
2023/09/01 07:12:32;;;;;;;2.78;1.67;;;;;;;21.28;50.42;93463.16;4959656;28;20132;-91
2023/09/01 07:14:58;;;;;;;8.57;5.60;;;;;;;21.33;50.79;93460.31;4932467;28;20043;-91
2023/09/01 07:17:23;;;;;;;8.32;5.63;;;;;;;21.29;50.45;93465.38;4902703;29;20045;-93
2023/09/01 07:19:49;;;;;;;4.22;2.90;;;;;;;21.27;50.45;93465.16;4890051;29;20071;-91
2023/09/01 07:22:15;;;;;;;6.20;2.38;;;;;;;21.27;50.37;93472.66;4901523;29;20044;-93
2023/09/01 07:24:41;;;;;;;2.90;2.60;;;;;;;21.29;50.44;93472.88;4895661;29;20040;-91
2023/09/01 07:27:11;;;;;;;6.57;2.40;;;;;;;21.28;50.48;93476.91;4905248;29;20025;-92
2023/09/01 07:29:37;;;;;;;10.65;4.85;;;;;;;;;;4988921;23;20504;-91
2023/09/01 07:32:07;;;;;;;6.65;3.55;;;;;;;21.27;50.33;93464.41;5037291;28;20128;-91
2023/09/01 07:34:37;;;;;;;13.13;3.90;;;;;;;21.27;50.33;93472.66;5020514;28;20365;-91
2023/09/01 07:37:03;;;;;;;9.43;3.20;;;;;;;21.28;50.50;93477.63;5005707;28;20042;-91
2023/09/01 07:39:29;;;;;;;19.42;5.80;;;;;;;21.26;50.36;93471.91;4995827;28;20184;-91
2023/09/01 07:41:56;;;;;;;35.17;15.10;;;;;;;21.28;50.40;93471.41;5000940;28;20053;-91
2023/09/01 07:44:23;;;;;;;38.33;18.17;;;;;;;21.30;50.21;93458.59;4994530;28;20505;-91
2023/09/01 07:46:49;;;;;;;49.53;22.42;;;;;;;21.29;50.33;93462.63;4972346;28;20128;-93
2023/09/01 07:49:15;;;;;;;78.03;35.28;;;;;;;21.31;50.27;93459.34;4957918;28;20061;-92
2023/09/01 07:51:40;;;;;;;73.60;31.45;;;;;;;21.32;50.28;93466.31;4966806;28;20069;-92
2023/09/01 07:54:06;;;;;;;82.65;36.45;;;;;;;21.34;50.47;93469.28;4972037;28;20044;-92
2023/09/01 07:56:33;;;;;;;70.68;37.42;;;;;;;21.30;50.67;93472.34;4972033;28;20077;-91
2023/09/01 07:58:59;;;;;;;96.38;41.88;;;;;;;21.30;50.53;93475.09;4999833;28;20516;-93
2023/09/01 08:01:25;;;;;;;86.72;42.88;;;;;;;21.33;50.61;93473.31;4971991;28;20052;-91
2023/09/01 08:03:50;;;;;;;98.70;43.83;;;;;;;21.33;50.65;93468.56;4989632;28;20539;-93
2023/09/01 08:06:16;;;;;;;108.47;43.70;;;;;;;21.32;50.51;93480.06;4972570;28;20046;-92
2023/09/01 08:08:41;;;;;;;93.22;43.35;;;;;;;21.32;50.31;93486.31;4977443;28;20049;-92
2023/09/01 08:11:07;;;;;;;92.10;40.05;;;;;;;21.34;50.16;93483.03;4986328;28;20042;-92
2023/09/01 08:13:32;;;;;;;93.78;37.75;;;;;;;21.31;50.49;93492.34;4994943;28;20045;-93
2023/09/01 08:15:58;;;;;;;75.30;38.47;;;;;;;21.29;50.64;93481.88;4982460;28;20033;-92
2023/09/01 08:18:23;;;;;;;79.20;36.90;;;;;;;21.34;50.53;93489.28;4988562;28;20108;-92
2023/09/01 08:20:49;;;;;;;76.13;37.63;;;;;;;21.32;50.45;93483.56;4983211;28;20037;-94
2023/09/01 08:23:14;;;;;;;74.82;38.20;;;;;;;21.34;50.57;93494.03;4992410;28;20049;-92
2023/09/01 08:25:40;;;;;;;99.35;48.67;;;;;;;21.36;50.53;93497.75;4993505;28;20384;-91
2023/09/01 08:28:07;;;;;;;90.63;48.88;;;;;;;21.33;50.50;93496.06;4994083;28;20462;-91
2023/09/01 08:30:32;;;;;;;96.93;47.78;;;;;;;21.33;50.94;93498.81;4980838;28;20103;-91
2023/09/01 08:32:57;;;;;;;124.35;60.35;;;;;;;21.34;50.88;93500.28;4984495;28;20038;-92
2023/09/01 08:35:23;;;;;;;134.70;64.72;;;;;;;21.34;50.50;93494.78;4989808;28;20493;-91
2023/09/01 08:37:49;;;;;;;123.13;61.70;;;;;;;21.37;50.62;93495.75;4979037;28;20455;-94
2023/09/01 08:40:18;;;;;;;121.55;59.30;;;;;;;21.38;50.77;93494.47;4997117;28;20542;-92
2023/09/01 08:42:48;;;;;;;125.20;64.97;;;;;;;21.37;50.71;93496.47;4992355;28;20096;-93
2023/09/01 08:45:17;;;;;;;121.60;64.78;;;;;;;21.35;50.62;93512.75;4996843;28;20070;-92
2023/09/01 08:47:44;;;;;;;119.60;61.67;;;;;;;21.39;50.48;93506.94;5015824;28;20033;-94
2023/09/01 08:50:10;;;;;;;132.98;62.15;;;;;;;21.36;50.83;93502.50;4984980;28;20041;-93
2023/09/01 08:52:37;;;;;;;134.15;64.70;;;;;;;21.36;50.78;93505.25;4993247;28;20037;-93
2023/09/01 08:55:03;;;;;;;130.20;62.63;;;;;;;21.37;50.58;93504.00;4990995;28;20046;-93
2023/09/01 08:57:29;;;;;;;136.00;62.17;;;;;;;21.39;50.59;93504.19;5000564;28;20091;-91
2023/09/01 08:59:54;;;;;;;114.40;58.97;;;;;;;21.39;50.72;93506.94;4994719;28;20045;-92
2023/09/01 09:02:20;;;;;;;113.80;55.00;;;;;;;21.40;50.72;93511.94;4997481;28;20038;-92
2023/09/01 09:04:46;;;;;;;116.78;52.13;;;;;;;21.37;50.79;93501.97;4996258;28;20052;-92
2023/09/01 09:07:16;;;;;;;100.82;51.92;;;;;;;21.38;50.83;93505.47;5008799;28;20034;-92
2023/09/01 09:09:55;;;;;;;98.82;51.85;;;;;;;21.40;50.70;93508.44;4995576;28;20108;-93
2023/09/01 09:12:22;;;;;;;100.57;49.15;;;;;;;21.38;50.48;93510.97;5000389;28;20045;-93
2023/09/01 09:14:54;;;;;;;101.93;49.40;;;;;;;21.37;50.75;93504.00;5043583;28;20699;-93
2023/09/01 09:17:23;;;;;;;107.75;52.60;;;;;;;21.40;50.78;93513.94;5020247;28;20041;-92
2023/09/01 09:19:54;;;;;;;112.25;47.33;;;;;;;21.39;50.99;93509.69;5001373;28;20038;-94
2023/09/01 09:22:20;;;;;;;81.07;43.85;;;;;;;21.42;51.10;93503.88;4986069;28;20555;-92
2023/09/01 09:24:46;;;;;;;112.40;51.70;;;;;;;21.45;50.61;93504.81;4977571;28;20068;-93
2023/09/01 09:27:16;;;;;;;101.10;50.13;;;;;;;21.45;50.72;93513.06;4991902;28;20132;-94
2023/09/01 09:29:42;;;;;;;104.68;49.13;;;;;;;21.43;51.08;93507.38;4984885;28;20520;-93
2023/09/01 09:32:21;;;;;;;112.88;52.17;;;;;;;21.43;51.01;93504.63;4997275;28;20037;-93
2023/09/01 09:35:07;;;;;;;100.47;52.20;;;;;;;21.43;51.10;93507.38;4996416;28;20049;-92
2023/09/01 09:37:33;;;;;;;105.43;51.05;;;;;;;21.51;50.57;93513.72;4990024;28;20071;-93
2023/09/01 09:40:09;;;;;;;106.55;54.65;;;;;;;21.45;51.11;93513.06;5011030;28;20420;-93
2023/09/01 09:42:38;;;;;;;96.32;47.83;;;;;;;21.42;51.19;93517.66;4992063;28;20073;-93
2023/09/01 09:45:06;;;;;;;99.50;50.38;;;;;;;21.44;50.99;93517.09;4994826;28;20050;-94
2023/09/01 09:47:33;;;;;;;95.25;49.03;;;;;;;21.44;50.75;93503.34;4991513;28;20046;-94
2023/09/01 09:49:59;;;;;;;93.03;49.67;;;;;;;21.42;50.84;93505.91;4998789;28;20495;-92
2023/09/01 09:52:25;;;;;;;93.53;48.33;;;;;;;21.43;51.25;93512.88;5002209;28;20048;-92
2023/09/01 09:54:51;;;;;;;96.40;47.80;;;;;;;21.41;50.95;93505.16;5002707;28;20400;-93
2023/09/01 09:57:18;;;;;;;100.28;48.58;;;;;;;21.42;51.27;93497.66;4999206;28;20046;-93
2023/09/01 09:59:56;;;;;;;86.97;44.80;;;;;;;21.44;51.11;93501.31;5025261;28;20030;-92
2023/09/01 10:02:36;;;;;;;91.75;46.97;;;;;;;21.45;50.66;93502.06;4989216;28;20046;-91
2023/09/01 10:05:04;;;;;;;95.32;45.75;;;;;;;21.47;50.93;93494.03;5010704;28;20026;-92
2023/09/01 10:07:30;;;;;;;85.30;44.10;;;;;;;21.45;50.92;93500.06;4992217;28;20037;-93
2023/09/01 10:09:56;;;;;;;74.97;41.67;;;;;;;21.47;50.80;93499.53;4994105;28;20041;-92
2023/09/01 10:12:21;;;;;;;86.75;43.67;;;;;;;21.47;50.67;93496.78;4994545;28;20041;-92
2023/09/01 10:14:47;;;;;;;76.90;40.83;;;;;;;21.46;50.95;93496.03;4995155;28;20419;-92
2023/09/01 10:17:13;;;;;;;65.63;37.70;;;;;;;21.49;51.11;93495.00;4987555;28;20037;-92
2023/09/01 10:19:38;;;;;;;73.30;39.85;;;;;;;21.50;50.83;93495.72;5006846;28;20139;-92
2023/09/01 10:22:04;;;;;;;68.93;37.83;;;;;;;21.50;51.14;93496.47;4991472;28;20041;-92
2023/09/01 10:24:29;;;;;;;74.75;37.95;;;;;;;21.49;50.73;93500.50;4994575;28;20545;-93
2023/09/01 10:27:08;;;;;;;63.33;34.83;;;;;;;21.49;50.77;93494.25;4988338;28;20041;-92
2023/09/01 10:29:34;;;;;;;70.30;38.33;;;;;;;21.52;50.72;93498.69;4987729;28;20037;-92
2023/09/01 10:32:18;;;;;;;63.90;37.70;;;;;;;21.50;50.78;93499.22;4990518;28;20042;-93
2023/09/01 10:34:54;;;;;;;60.40;33.63;;;;;;;21.51;50.94;93495.19;4983606;28;20025;-91
2023/09/01 10:37:30;;;;;;;61.00;33.00;;;;;;;21.54;50.90;93496.91;4987715;28;20042;-92
2023/09/01 10:39:55;;;;;;;58.70;33.25;;;;;;;21.52;50.85;93496.69;5007148;28;20515;-92
2023/09/01 10:42:40;;;;;;;53.65;32.60;;;;;;;21.52;50.83;93499.44;4989115;28;20045;-92
2023/09/01 10:45:08;;;;;;;55.80;32.63;;;;;;;21.50;50.66;93493.72;5009637;28;20034;-92
2023/09/01 10:47:33;;;;;;;59.75;33.50;;;;;;;21.53;50.67;93489.19;5021568;28;20187;-92
2023/09/01 10:50:06;;;;;;;60.17;32.78;;;;;;;21.52;50.70;93493.19;5029185;28;20045;-92
2023/09/01 10:52:32;;;;;;;61.78;31.48;;;;;;;21.55;50.93;93490.13;4986408;28;20042;-92
2023/09/01 10:55:00;;;;;;;57.55;30.23;;;;;;;21.52;50.88;93482.94;4993750;28;20044;-93
2023/09/01 10:57:50;;;;;;;52.25;30.30;;;;;;;21.53;50.87;93483.66;5020927;28;20101;-92
2023/09/01 11:00:31;;;;;;;52.25;30.25;;;;;;;21.52;50.76;93490.44;4996932;28;20058;-92
2023/09/01 11:03:25;;;;;;;55.33;30.20;;;;;;;21.51;50.89;93494.47;4987570;28;20030;-92
2023/09/01 11:05:54;;;;;;;53.10;30.55;;;;;;;21.52;50.89;93485.69;5022812;28;20045;-92
2023/09/01 11:08:21;;;;;;;55.28;29.52;;;;;;;21.51;50.83;93492.44;4988490;28;20049;-94
2023/09/01 11:10:46;;;;;;;50.50;29.52;;;;;;;21.53;50.94;93497.44;4991683;28;20034;-92
2023/09/01 11:13:15;;;;;;;50.40;28.27;;;;;;;21.52;50.97;93501.44;4988313;28;20049;-92
2023/09/01 11:15:49;;;;;;;49.78;28.83;;;;;;;21.52;50.85;93495.94;4998898;28;20041;-91
2023/09/01 11:18:22;;;;;;;51.10;29.42;;;;;;;21.53;50.87;93503.66;4986223;28;20050;-92
2023/09/01 11:20:48;;;;;;;48.08;27.52;;;;;;;21.54;51.03;93502.41;4993540;28;20065;-92
2023/09/01 11:23:19;;;;;;;46.70;27.70;;;;;;;21.54;50.61;93504.41;4992645;28;20117;-93
2023/09/01 11:25:44;;;;;;;;;;;;;;;21.55;50.94;93514.88;4996651;28;20057;-92
2023/09/01 11:28:12;;;;;;;45.63;25.35;;;;;;;21.53;50.89;93506.41;5011004;28;20337;-92